sensor_id;sensor_type;location;lat;lon;timestamp;P1;durP1;ratioP1;P2;durP2;ratioP2
4519;SDS011;2272;49.226;8.108;2023-02-01T00:02:00;11.73;;;5.40;;
4519;SDS011;2272;49.226;8.108;2023-02-01T00:04:27;5.23;;;4.73;;
4519;SDS011;2272;49.226;8.108;2023-02-01T00:06:56;5.57;;;4.70;;
4519;SDS011;2272;49.226;8.108;2023-02-01T00:09:23;5.57;;;5.00;;
4519;SDS011;2272;49.226;8.108;2023-02-01T00:11:50;9.93;;;5.20;;
4519;SDS011;2272;49.226;8.108;2023-02-01T00:14:17;8.23;;;5.03;;
4519;SDS011;2272;49.226;8.108;2023-02-01T00:16:44;4.43;;;4.13;;
4519;SDS011;2272;49.226;8.108;2023-02-01T00:19:12;6.40;;;5.50;;
4519;SDS011;2272;49.226;8.108;2023-02-01T00:21:40;9.50;;;5.73;;
4519;SDS011;2272;49.226;8.108;2023-02-01T00:24:09;9.60;;;5.53;;
4519;SDS011;2272;49.226;8.108;2023-02-01T00:26:38;8.43;;;5.80;;
4519;SDS011;2272;49.226;8.108;2023-02-01T00:29:06;7.33;;;5.20;;
4519;SDS011;2272;49.226;8.108;2023-02-01T00:31:33;6.13;;;5.53;;
4519;SDS011;2272;49.226;8.108;2023-02-01T00:34:00;5.73;;;4.60;;
4519;SDS011;2272;49.226;8.108;2023-02-01T00:36:27;8.07;;;5.50;;
4519;SDS011;2272;49.226;8.108;2023-02-01T00:38:54;4.30;;;4.10;;
4519;SDS011;2272;49.226;8.108;2023-02-01T00:41:23;5.83;;;4.73;;
4519;SDS011;2272;49.226;8.108;2023-02-01T00:43:50;5.13;;;4.63;;
4519;SDS011;2272;49.226;8.108;2023-02-01T00:46:18;6.17;;;4.90;;
4519;SDS011;2272;49.226;8.108;2023-02-01T00:48:46;4.40;;;4.10;;
4519;SDS011;2272;49.226;8.108;2023-02-01T00:51:14;5.07;;;4.57;;
4519;SDS011;2272;49.226;8.108;2023-02-01T00:53:41;3.77;;;3.47;;
4519;SDS011;2272;49.226;8.108;2023-02-01T00:56:10;4.50;;;4.10;;
4519;SDS011;2272;49.226;8.108;2023-02-01T00:58:39;13.30;;;3.93;;
4519;SDS011;2272;49.226;8.108;2023-02-01T01:01:07;8.90;;;4.70;;
4519;SDS011;2272;49.226;8.108;2023-02-01T01:03:35;14.33;;;4.40;;
4519;SDS011;2272;49.226;8.108;2023-02-01T01:06:03;4.37;;;3.97;;
4519;SDS011;2272;49.226;8.108;2023-02-01T01:08:31;4.57;;;4.10;;
4519;SDS011;2272;49.226;8.108;2023-02-01T01:10:58;5.03;;;4.20;;
4519;SDS011;2272;49.226;8.108;2023-02-01T01:13:25;4.30;;;3.90;;
4519;SDS011;2272;49.226;8.108;2023-02-01T01:15:53;4.20;;;3.90;;
4519;SDS011;2272;49.226;8.108;2023-02-01T01:18:20;5.27;;;4.10;;
4519;SDS011;2272;49.226;8.108;2023-02-01T01:20:47;6.63;;;4.07;;
4519;SDS011;2272;49.226;8.108;2023-02-01T01:23:14;3.67;;;3.47;;
4519;SDS011;2272;49.226;8.108;2023-02-01T01:25:42;4.10;;;3.80;;
4519;SDS011;2272;49.226;8.108;2023-02-01T01:28:09;4.13;;;3.80;;
4519;SDS011;2272;49.226;8.108;2023-02-01T01:30:36;3.97;;;3.57;;
4519;SDS011;2272;49.226;8.108;2023-02-01T01:33:04;4.77;;;4.03;;
4519;SDS011;2272;49.226;8.108;2023-02-01T01:35:31;4.87;;;4.40;;
4519;SDS011;2272;49.226;8.108;2023-02-01T01:37:59;4.80;;;4.37;;
4519;SDS011;2272;49.226;8.108;2023-02-01T01:40:26;4.10;;;3.77;;
4519;SDS011;2272;49.226;8.108;2023-02-01T01:42:53;5.87;;;4.40;;
4519;SDS011;2272;49.226;8.108;2023-02-01T01:45:23;5.43;;;4.93;;
4519;SDS011;2272;49.226;8.108;2023-02-01T01:47:51;3.77;;;3.57;;
4519;SDS011;2272;49.226;8.108;2023-02-01T01:50:21;4.90;;;4.07;;
4519;SDS011;2272;49.226;8.108;2023-02-01T01:52:50;6.27;;;4.87;;
4519;SDS011;2272;49.226;8.108;2023-02-01T01:55:20;4.73;;;4.33;;
4519;SDS011;2272;49.226;8.108;2023-02-01T01:57:50;8.00;;;4.20;;
4519;SDS011;2272;49.226;8.108;2023-02-01T02:00:18;5.70;;;5.00;;
4519;SDS011;2272;49.226;8.108;2023-02-01T02:02:46;5.37;;;4.87;;
4519;SDS011;2272;49.226;8.108;2023-02-01T02:05:14;7.33;;;4.73;;
4519;SDS011;2272;49.226;8.108;2023-02-01T02:07:45;5.03;;;4.60;;
4519;SDS011;2272;49.226;8.108;2023-02-01T02:10:13;4.80;;;4.40;;
4519;SDS011;2272;49.226;8.108;2023-02-01T02:12:41;4.67;;;4.27;;
4519;SDS011;2272;49.226;8.108;2023-02-01T02:15:08;6.27;;;4.23;;
4519;SDS011;2272;49.226;8.108;2023-02-01T02:17:36;6.20;;;5.10;;
4519;SDS011;2272;49.226;8.108;2023-02-01T02:20:22;14.83;;;4.63;;
4519;SDS011;2272;49.226;8.108;2023-02-01T02:23:02;7.20;;;4.93;;
4519;SDS011;2272;49.226;8.108;2023-02-01T02:28:24;8.53;;;5.07;;
4519;SDS011;2272;49.226;8.108;2023-02-01T02:31:06;6.07;;;5.17;;
4519;SDS011;2272;49.226;8.108;2023-02-01T02:33:39;8.97;;;4.63;;
4519;SDS011;2272;49.226;8.108;2023-02-01T02:36:09;7.03;;;5.87;;
4519;SDS011;2272;49.226;8.108;2023-02-01T02:38:39;5.90;;;5.40;;
4519;SDS011;2272;49.226;8.108;2023-02-01T02:41:09;5.83;;;5.33;;
4519;SDS011;2272;49.226;8.108;2023-02-01T02:43:59;5.30;;;4.90;;
4519;SDS011;2272;49.226;8.108;2023-02-01T02:46:46;5.93;;;5.33;;
4519;SDS011;2272;49.226;8.108;2023-02-01T02:49:34;9.97;;;5.57;;
4519;SDS011;2272;49.226;8.108;2023-02-01T02:52:02;9.50;;;6.90;;
4519;SDS011;2272;49.226;8.108;2023-02-01T02:54:47;6.87;;;5.57;;
4519;SDS011;2272;49.226;8.108;2023-02-01T02:57:18;6.90;;;5.90;;
4519;SDS011;2272;49.226;8.108;2023-02-01T03:00:04;9.00;;;5.47;;
4519;SDS011;2272;49.226;8.108;2023-02-01T03:02:49;10.03;;;6.13;;
4519;SDS011;2272;49.226;8.108;2023-02-01T03:05:37;14.93;;;6.50;;
4519;SDS011;2272;49.226;8.108;2023-02-01T03:08:09;6.97;;;6.37;;
4519;SDS011;2272;49.226;8.108;2023-02-01T03:10:51;9.03;;;6.60;;
4519;SDS011;2272;49.226;8.108;2023-02-01T03:13:22;8.40;;;6.43;;
4519;SDS011;2272;49.226;8.108;2023-02-01T03:15:51;11.37;;;6.90;;
4519;SDS011;2272;49.226;8.108;2023-02-01T03:18:22;7.23;;;6.37;;
4519;SDS011;2272;49.226;8.108;2023-02-01T03:20:53;12.97;;;6.83;;
4519;SDS011;2272;49.226;8.108;2023-02-01T03:23:22;9.07;;;5.40;;
4519;SDS011;2272;49.226;8.108;2023-02-01T03:25:50;8.33;;;5.30;;
4519;SDS011;2272;49.226;8.108;2023-02-01T03:28:19;8.60;;;5.50;;
4519;SDS011;2272;49.226;8.108;2023-02-01T03:30:49;6.20;;;5.27;;
4519;SDS011;2272;49.226;8.108;2023-02-01T03:33:18;10.30;;;5.73;;
4519;SDS011;2272;49.226;8.108;2023-02-01T03:35:50;6.90;;;5.87;;
4519;SDS011;2272;49.226;8.108;2023-02-01T03:38:21;12.17;;;6.00;;
4519;SDS011;2272;49.226;8.108;2023-02-01T03:40:51;8.00;;;5.73;;
4519;SDS011;2272;49.226;8.108;2023-02-01T03:43:18;6.37;;;5.77;;
4519;SDS011;2272;49.226;8.108;2023-02-01T03:45:48;6.43;;;5.83;;
4519;SDS011;2272;49.226;8.108;2023-02-01T03:48:17;10.43;;;5.17;;
4519;SDS011;2272;49.226;8.108;2023-02-01T03:50:52;7.43;;;3.93;;
4519;SDS011;2272;49.226;8.108;2023-02-01T03:53:22;4.73;;;4.33;;
4519;SDS011;2272;49.226;8.108;2023-02-01T03:55:50;10.10;;;6.10;;
4519;SDS011;2272;49.226;8.108;2023-02-01T03:58:18;13.73;;;8.40;;
4519;SDS011;2272;49.226;8.108;2023-02-01T04:00:46;12.73;;;6.10;;
4519;SDS011;2272;49.226;8.108;2023-02-01T04:03:16;12.70;;;9.27;;
4519;SDS011;2272;49.226;8.108;2023-02-01T04:05:43;6.70;;;5.63;;
4519;SDS011;2272;49.226;8.108;2023-02-01T04:08:10;7.97;;;7.20;;
4519;SDS011;2272;49.226;8.108;2023-02-01T04:10:39;8.40;;;7.50;;
4519;SDS011;2272;49.226;8.108;2023-02-01T04:13:06;11.53;;;8.27;;
4519;SDS011;2272;49.226;8.108;2023-02-01T04:15:33;31.87;;;20.50;;
4519;SDS011;2272;49.226;8.108;2023-02-01T04:18:00;27.97;;;15.73;;
4519;SDS011;2272;49.226;8.108;2023-02-01T04:20:27;17.53;;;13.07;;
4519;SDS011;2272;49.226;8.108;2023-02-01T04:22:54;18.43;;;12.40;;
4519;SDS011;2272;49.226;8.108;2023-02-01T04:25:21;12.67;;;10.23;;
4519;SDS011;2272;49.226;8.108;2023-02-01T04:27:50;13.07;;;9.27;;
4519;SDS011;2272;49.226;8.108;2023-02-01T04:30:17;13.37;;;9.73;;
4519;SDS011;2272;49.226;8.108;2023-02-01T04:32:44;14.63;;;7.80;;
4519;SDS011;2272;49.226;8.108;2023-02-01T04:35:11;8.53;;;7.73;;
4519;SDS011;2272;49.226;8.108;2023-02-01T04:37:38;21.63;;;15.03;;
4519;SDS011;2272;49.226;8.108;2023-02-01T04:40:06;20.97;;;10.60;;
4519;SDS011;2272;49.226;8.108;2023-02-01T04:42:33;55.73;;;26.40;;
4519;SDS011;2272;49.226;8.108;2023-02-01T04:45:01;57.10;;;29.30;;
4519;SDS011;2272;49.226;8.108;2023-02-01T04:47:28;26.93;;;15.30;;
4519;SDS011;2272;49.226;8.108;2023-02-01T04:49:56;19.70;;;13.00;;
4519;SDS011;2272;49.226;8.108;2023-02-01T04:52:23;51.93;;;26.40;;
4519;SDS011;2272;49.226;8.108;2023-02-01T04:54:50;27.60;;;16.00;;
4519;SDS011;2272;49.226;8.108;2023-02-01T04:57:19;28.70;;;16.53;;
4519;SDS011;2272;49.226;8.108;2023-02-01T04:59:46;18.47;;;9.53;;
4519;SDS011;2272;49.226;8.108;2023-02-01T05:02:14;19.57;;;11.30;;
4519;SDS011;2272;49.226;8.108;2023-02-01T05:04:41;10.83;;;7.77;;
4519;SDS011;2272;49.226;8.108;2023-02-01T05:07:08;12.20;;;7.67;;
4519;SDS011;2272;49.226;8.108;2023-02-01T05:09:35;14.50;;;9.27;;
4519;SDS011;2272;49.226;8.108;2023-02-01T05:12:02;12.80;;;7.00;;
4519;SDS011;2272;49.226;8.108;2023-02-01T05:14:47;17.17;;;8.00;;
4519;SDS011;2272;49.226;8.108;2023-02-01T05:17:16;11.80;;;8.23;;
4519;SDS011;2272;49.226;8.108;2023-02-01T05:19:43;17.67;;;8.00;;
4519;SDS011;2272;49.226;8.108;2023-02-01T05:22:10;10.07;;;6.07;;
4519;SDS011;2272;49.226;8.108;2023-02-01T05:24:37;18.00;;;7.20;;
4519;SDS011;2272;49.226;8.108;2023-02-01T05:27:04;14.03;;;5.57;;
4519;SDS011;2272;49.226;8.108;2023-02-01T05:29:31;15.70;;;6.00;;
4519;SDS011;2272;49.226;8.108;2023-02-01T05:31:58;8.60;;;5.60;;
4519;SDS011;2272;49.226;8.108;2023-02-01T05:34:26;11.30;;;6.80;;
4519;SDS011;2272;49.226;8.108;2023-02-01T05:36:53;18.30;;;5.50;;
4519;SDS011;2272;49.226;8.108;2023-02-01T05:39:20;9.63;;;8.57;;
4519;SDS011;2272;49.226;8.108;2023-02-01T05:41:47;8.37;;;5.97;;
4519;SDS011;2272;49.226;8.108;2023-02-01T05:44:14;7.60;;;5.10;;
4519;SDS011;2272;49.226;8.108;2023-02-01T05:46:41;11.47;;;6.97;;
4519;SDS011;2272;49.226;8.108;2023-02-01T05:49:08;8.83;;;6.20;;
4519;SDS011;2272;49.226;8.108;2023-02-01T05:51:37;8.60;;;5.90;;
4519;SDS011;2272;49.226;8.108;2023-02-01T05:54:04;5.27;;;4.80;;
4519;SDS011;2272;49.226;8.108;2023-02-01T05:56:31;8.00;;;5.33;;
4519;SDS011;2272;49.226;8.108;2023-02-01T05:58:58;9.23;;;5.87;;
4519;SDS011;2272;49.226;8.108;2023-02-01T06:01:25;11.60;;;4.60;;
4519;SDS011;2272;49.226;8.108;2023-02-01T06:03:52;9.47;;;5.53;;
4519;SDS011;2272;49.226;8.108;2023-02-01T06:06:19;6.63;;;4.33;;
4519;SDS011;2272;49.226;8.108;2023-02-01T06:08:47;7.10;;;4.50;;
4519;SDS011;2272;49.226;8.108;2023-02-01T06:11:14;6.30;;;4.63;;
4519;SDS011;2272;49.226;8.108;2023-02-01T06:13:41;8.10;;;4.00;;
4519;SDS011;2272;49.226;8.108;2023-02-01T06:16:08;10.10;;;5.10;;
4519;SDS011;2272;49.226;8.108;2023-02-01T06:18:35;6.63;;;4.43;;
4519;SDS011;2272;49.226;8.108;2023-02-01T06:21:03;8.87;;;4.50;;
4519;SDS011;2272;49.226;8.108;2023-02-01T06:23:30;12.93;;;4.03;;
4519;SDS011;2272;49.226;8.108;2023-02-01T06:25:59;6.17;;;4.30;;
4519;SDS011;2272;49.226;8.108;2023-02-01T06:28:27;8.23;;;2.63;;
4519;SDS011;2272;49.226;8.108;2023-02-01T06:30:54;15.50;;;2.07;;
4519;SDS011;2272;49.226;8.108;2023-02-01T06:33:22;6.57;;;2.23;;
4519;SDS011;2272;49.226;8.108;2023-02-01T06:35:55;2.70;;;2.00;;
4519;SDS011;2272;49.226;8.108;2023-02-01T06:38:23;4.83;;;2.07;;
4519;SDS011;2272;49.226;8.108;2023-02-01T06:40:51;1.53;;;1.53;;
4519;SDS011;2272;49.226;8.108;2023-02-01T06:43:20;5.57;;;2.80;;
4519;SDS011;2272;49.226;8.108;2023-02-01T06:45:47;7.90;;;3.20;;
4519;SDS011;2272;49.226;8.108;2023-02-01T06:48:14;5.77;;;3.63;;
4519;SDS011;2272;49.226;8.108;2023-02-01T06:50:41;12.57;;;4.73;;
4519;SDS011;2272;49.226;8.108;2023-02-01T06:53:08;4.83;;;3.40;;
4519;SDS011;2272;49.226;8.108;2023-02-01T06:55:35;18.50;;;4.87;;
4519;SDS011;2272;49.226;8.108;2023-02-01T06:58:02;12.87;;;5.60;;
4519;SDS011;2272;49.226;8.108;2023-02-01T07:00:30;23.10;;;6.13;;
4519;SDS011;2272;49.226;8.108;2023-02-01T07:02:57;12.87;;;5.77;;
4519;SDS011;2272;49.226;8.108;2023-02-01T07:05:26;27.70;;;7.50;;
4519;SDS011;2272;49.226;8.108;2023-02-01T07:07:53;14.30;;;6.57;;
4519;SDS011;2272;49.226;8.108;2023-02-01T07:10:20;21.07;;;7.20;;
4519;SDS011;2272;49.226;8.108;2023-02-01T07:12:47;15.77;;;6.43;;
4519;SDS011;2272;49.226;8.108;2023-02-01T07:15:14;12.13;;;6.00;;
4519;SDS011;2272;49.226;8.108;2023-02-01T07:17:42;22.70;;;5.40;;
4519;SDS011;2272;49.226;8.108;2023-02-01T07:20:10;19.10;;;5.57;;
4519;SDS011;2272;49.226;8.108;2023-02-01T07:22:37;8.60;;;5.27;;
4519;SDS011;2272;49.226;8.108;2023-02-01T07:25:05;11.20;;;5.30;;
4519;SDS011;2272;49.226;8.108;2023-02-01T07:27:33;14.87;;;4.80;;
4519;SDS011;2272;49.226;8.108;2023-02-01T07:30:00;7.13;;;5.00;;
4519;SDS011;2272;49.226;8.108;2023-02-01T07:32:28;5.67;;;4.53;;
4519;SDS011;2272;49.226;8.108;2023-02-01T07:34:56;7.27;;;4.30;;
4519;SDS011;2272;49.226;8.108;2023-02-01T07:37:23;12.70;;;6.10;;
4519;SDS011;2272;49.226;8.108;2023-02-01T07:39:50;8.50;;;5.37;;
4519;SDS011;2272;49.226;8.108;2023-02-01T07:42:18;12.33;;;4.97;;
4519;SDS011;2272;49.226;8.108;2023-02-01T07:44:45;17.63;;;5.43;;
4519;SDS011;2272;49.226;8.108;2023-02-01T07:47:12;11.27;;;5.27;;
4519;SDS011;2272;49.226;8.108;2023-02-01T07:49:39;17.43;;;5.83;;
4519;SDS011;2272;49.226;8.108;2023-02-01T07:52:07;16.87;;;5.27;;
4519;SDS011;2272;49.226;8.108;2023-02-01T07:54:36;28.23;;;5.20;;
4519;SDS011;2272;49.226;8.108;2023-02-01T07:57:03;11.03;;;5.77;;
4519;SDS011;2272;49.226;8.108;2023-02-01T07:59:30;10.13;;;5.07;;
4519;SDS011;2272;49.226;8.108;2023-02-01T08:01:57;13.33;;;5.80;;
4519;SDS011;2272;49.226;8.108;2023-02-01T08:04:23;14.17;;;5.63;;
4519;SDS011;2272;49.226;8.108;2023-02-01T08:06:50;10.17;;;5.50;;
4519;SDS011;2272;49.226;8.108;2023-02-01T08:09:18;20.63;;;6.57;;
4519;SDS011;2272;49.226;8.108;2023-02-01T08:11:45;7.53;;;4.33;;
4519;SDS011;2272;49.226;8.108;2023-02-01T08:14:12;23.33;;;5.60;;
4519;SDS011;2272;49.226;8.108;2023-02-01T08:16:39;9.07;;;5.03;;
4519;SDS011;2272;49.226;8.108;2023-02-01T08:19:06;12.70;;;5.60;;
4519;SDS011;2272;49.226;8.108;2023-02-01T08:21:33;14.97;;;6.07;;
4519;SDS011;2272;49.226;8.108;2023-02-01T08:24:03;12.23;;;5.63;;
4519;SDS011;2272;49.226;8.108;2023-02-01T08:26:31;15.93;;;5.43;;
4519;SDS011;2272;49.226;8.108;2023-02-01T08:28:59;4.60;;;4.00;;
4519;SDS011;2272;49.226;8.108;2023-02-01T08:31:28;11.90;;;5.37;;
4519;SDS011;2272;49.226;8.108;2023-02-01T08:33:56;24.33;;;4.83;;
4519;SDS011;2272;49.226;8.108;2023-02-01T08:36:25;16.60;;;6.30;;
4519;SDS011;2272;49.226;8.108;2023-02-01T08:38:52;10.93;;;4.80;;
4519;SDS011;2272;49.226;8.108;2023-02-01T08:41:19;23.53;;;5.77;;
4519;SDS011;2272;49.226;8.108;2023-02-01T08:43:48;18.70;;;5.17;;
4519;SDS011;2272;49.226;8.108;2023-02-01T08:46:15;8.03;;;5.30;;
4519;SDS011;2272;49.226;8.108;2023-02-01T08:48:43;19.07;;;6.10;;
4519;SDS011;2272;49.226;8.108;2023-02-01T08:51:12;13.30;;;5.47;;
4519;SDS011;2272;49.226;8.108;2023-02-01T08:53:40;24.63;;;5.70;;
4519;SDS011;2272;49.226;8.108;2023-02-01T08:56:08;13.30;;;5.03;;
4519;SDS011;2272;49.226;8.108;2023-02-01T08:58:36;20.13;;;6.40;;
4519;SDS011;2272;49.226;8.108;2023-02-01T09:01:04;17.37;;;6.00;;
4519;SDS011;2272;49.226;8.108;2023-02-01T09:03:32;13.87;;;5.20;;
4519;SDS011;2272;49.226;8.108;2023-02-01T09:05:59;34.33;;;12.00;;
4519;SDS011;2272;49.226;8.108;2023-02-01T09:08:27;13.97;;;8.20;;
4519;SDS011;2272;49.226;8.108;2023-02-01T09:10:57;34.97;;;9.57;;
4519;SDS011;2272;49.226;8.108;2023-02-01T09:13:24;19.60;;;5.20;;
4519;SDS011;2272;49.226;8.108;2023-02-01T09:15:51;27.03;;;7.50;;
4519;SDS011;2272;49.226;8.108;2023-02-01T09:18:20;15.50;;;5.43;;
4519;SDS011;2272;49.226;8.108;2023-02-01T09:20:47;23.47;;;6.27;;
4519;SDS011;2272;49.226;8.108;2023-02-01T09:23:14;14.70;;;7.17;;
4519;SDS011;2272;49.226;8.108;2023-02-01T09:25:41;12.43;;;6.57;;
4519;SDS011;2272;49.226;8.108;2023-02-01T09:28:08;24.33;;;8.27;;
4519;SDS011;2272;49.226;8.108;2023-02-01T09:30:36;22.73;;;10.87;;
4519;SDS011;2272;49.226;8.108;2023-02-01T09:33:03;21.53;;;7.73;;
4519;SDS011;2272;49.226;8.108;2023-02-01T09:35:31;13.40;;;6.63;;
4519;SDS011;2272;49.226;8.108;2023-02-01T09:37:58;13.77;;;8.50;;
4519;SDS011;2272;49.226;8.108;2023-02-01T09:40:25;20.93;;;6.83;;
4519;SDS011;2272;49.226;8.108;2023-02-01T09:43:06;13.40;;;5.00;;
4519;SDS011;2272;49.226;8.108;2023-02-01T09:45:38;19.43;;;6.70;;
4519;SDS011;2272;49.226;8.108;2023-02-01T09:48:11;18.53;;;7.27;;
4519;SDS011;2272;49.226;8.108;2023-02-01T09:50:43;12.27;;;5.80;;
4519;SDS011;2272;49.226;8.108;2023-02-01T09:53:12;13.80;;;5.60;;
4519;SDS011;2272;49.226;8.108;2023-02-01T09:55:42;28.23;;;8.80;;
4519;SDS011;2272;49.226;8.108;2023-02-01T09:58:12;23.27;;;6.10;;
4519;SDS011;2272;49.226;8.108;2023-02-01T10:00:49;24.20;;;8.10;;
4519;SDS011;2272;49.226;8.108;2023-02-01T10:03:17;15.10;;;6.90;;
4519;SDS011;2272;49.226;8.108;2023-02-01T10:05:51;31.17;;;9.70;;
4519;SDS011;2272;49.226;8.108;2023-02-01T10:08:24;23.77;;;9.23;;
4519;SDS011;2272;49.226;8.108;2023-02-01T10:10:52;23.17;;;8.10;;
4519;SDS011;2272;49.226;8.108;2023-02-01T10:13:30;40.13;;;9.90;;
4519;SDS011;2272;49.226;8.108;2023-02-01T10:16:05;32.07;;;10.50;;
4519;SDS011;2272;49.226;8.108;2023-02-01T10:18:40;21.33;;;7.37;;
4519;SDS011;2272;49.226;8.108;2023-02-01T10:21:13;12.13;;;6.37;;
4519;SDS011;2272;49.226;8.108;2023-02-01T10:23:54;23.20;;;7.90;;
4519;SDS011;2272;49.226;8.108;2023-02-01T10:26:24;16.97;;;6.83;;
4519;SDS011;2272;49.226;8.108;2023-02-01T10:28:52;28.73;;;7.03;;
4519;SDS011;2272;49.226;8.108;2023-02-01T10:31:21;26.43;;;6.30;;
4519;SDS011;2272;49.226;8.108;2023-02-01T10:33:49;16.73;;;4.77;;
4519;SDS011;2272;49.226;8.108;2023-02-01T10:36:20;15.50;;;4.70;;
4519;SDS011;2272;49.226;8.108;2023-02-01T10:38:48;21.57;;;5.70;;
4519;SDS011;2272;49.226;8.108;2023-02-01T10:41:16;12.63;;;4.53;;
4519;SDS011;2272;49.226;8.108;2023-02-01T10:43:44;19.20;;;5.90;;
4519;SDS011;2272;49.226;8.108;2023-02-01T10:46:12;18.90;;;3.73;;
4519;SDS011;2272;49.226;8.108;2023-02-01T10:48:39;23.27;;;5.03;;
4519;SDS011;2272;49.226;8.108;2023-02-01T10:51:07;13.50;;;4.90;;
4519;SDS011;2272;49.226;8.108;2023-02-01T10:53:41;18.20;;;5.23;;
4519;SDS011;2272;49.226;8.108;2023-02-01T10:56:09;23.67;;;6.57;;
4519;SDS011;2272;49.226;8.108;2023-02-01T10:58:42;18.13;;;3.90;;
4519;SDS011;2272;49.226;8.108;2023-02-01T11:01:10;24.63;;;5.47;;
4519;SDS011;2272;49.226;8.108;2023-02-01T11:03:42;15.33;;;3.90;;
4519;SDS011;2272;49.226;8.108;2023-02-01T11:06:14;24.73;;;6.80;;
4519;SDS011;2272;49.226;8.108;2023-02-01T11:08:46;13.10;;;3.87;;
4519;SDS011;2272;49.226;8.108;2023-02-01T11:11:14;13.73;;;3.77;;
4519;SDS011;2272;49.226;8.108;2023-02-01T11:13:41;24.83;;;3.93;;
4519;SDS011;2272;49.226;8.108;2023-02-01T11:16:11;13.57;;;3.30;;
4519;SDS011;2272;49.226;8.108;2023-02-01T11:18:39;10.00;;;3.40;;
4519;SDS011;2272;49.226;8.108;2023-02-01T11:21:07;26.73;;;4.23;;
4519;SDS011;2272;49.226;8.108;2023-02-01T11:23:36;14.43;;;4.03;;
4519;SDS011;2272;49.226;8.108;2023-02-01T11:26:09;10.70;;;3.63;;
4519;SDS011;2272;49.226;8.108;2023-02-01T11:28:37;7.10;;;3.63;;
4519;SDS011;2272;49.226;8.108;2023-02-01T11:31:05;20.43;;;3.23;;
4519;SDS011;2272;49.226;8.108;2023-02-01T11:33:34;18.93;;;4.40;;
4519;SDS011;2272;49.226;8.108;2023-02-01T11:36:06;14.00;;;3.27;;
4519;SDS011;2272;49.226;8.108;2023-02-01T11:38:33;33.20;;;5.50;;
4519;SDS011;2272;49.226;8.108;2023-02-01T11:41:14;10.30;;;3.50;;
4519;SDS011;2272;49.226;8.108;2023-02-01T11:43:54;24.17;;;5.07;;
4519;SDS011;2272;49.226;8.108;2023-02-01T11:46:23;12.47;;;3.63;;
4519;SDS011;2272;49.226;8.108;2023-02-01T11:48:51;22.70;;;4.37;;
4519;SDS011;2272;49.226;8.108;2023-02-01T11:51:21;21.60;;;4.00;;
4519;SDS011;2272;49.226;8.108;2023-02-01T11:54:02;15.50;;;4.20;;
4519;SDS011;2272;49.226;8.108;2023-02-01T11:56:35;18.07;;;4.20;;
4519;SDS011;2272;49.226;8.108;2023-02-01T11:59:12;11.73;;;4.60;;
4519;SDS011;2272;49.226;8.108;2023-02-01T12:04:39;23.43;;;4.10;;
4519;SDS011;2272;49.226;8.108;2023-02-01T12:07:13;37.50;;;3.80;;
4519;SDS011;2272;49.226;8.108;2023-02-01T12:09:45;16.77;;;3.93;;
4519;SDS011;2272;49.226;8.108;2023-02-01T12:12:17;20.70;;;4.33;;
4519;SDS011;2272;49.226;8.108;2023-02-01T12:14:51;13.87;;;3.90;;
4519;SDS011;2272;49.226;8.108;2023-02-01T12:20:15;15.73;;;3.33;;
4519;SDS011;2272;49.226;8.108;2023-02-01T12:22:47;10.00;;;3.43;;
4519;SDS011;2272;49.226;8.108;2023-02-01T12:25:19;21.97;;;3.47;;
4519;SDS011;2272;49.226;8.108;2023-02-01T12:30:44;8.83;;;3.17;;
4519;SDS011;2272;49.226;8.108;2023-02-01T12:33:17;9.57;;;3.67;;
4519;SDS011;2272;49.226;8.108;2023-02-01T12:35:51;15.37;;;4.27;;
4519;SDS011;2272;49.226;8.108;2023-02-01T12:38:25;8.73;;;3.47;;
4519;SDS011;2272;49.226;8.108;2023-02-01T12:40:58;10.40;;;3.87;;
4519;SDS011;2272;49.226;8.108;2023-02-01T12:43:34;9.63;;;3.37;;
4519;SDS011;2272;49.226;8.108;2023-02-01T12:46:06;16.70;;;3.90;;
4519;SDS011;2272;49.226;8.108;2023-02-01T12:48:36;14.23;;;3.60;;
4519;SDS011;2272;49.226;8.108;2023-02-01T12:51:07;18.37;;;3.50;;
4519;SDS011;2272;49.226;8.108;2023-02-01T12:53:42;13.70;;;3.20;;
4519;SDS011;2272;49.226;8.108;2023-02-01T12:56:11;23.03;;;3.83;;
4519;SDS011;2272;49.226;8.108;2023-02-01T12:58:40;11.23;;;3.77;;
4519;SDS011;2272;49.226;8.108;2023-02-01T13:01:12;15.77;;;4.40;;
4519;SDS011;2272;49.226;8.108;2023-02-01T13:03:41;19.67;;;5.00;;
4519;SDS011;2272;49.226;8.108;2023-02-01T13:06:10;18.93;;;3.30;;
4519;SDS011;2272;49.226;8.108;2023-02-01T13:08:41;21.20;;;4.57;;
4519;SDS011;2272;49.226;8.108;2023-02-01T13:11:10;13.37;;;5.80;;
4519;SDS011;2272;49.226;8.108;2023-02-01T13:13:42;7.10;;;3.23;;
4519;SDS011;2272;49.226;8.108;2023-02-01T13:16:14;17.73;;;5.57;;
4519;SDS011;2272;49.226;8.108;2023-02-01T13:18:43;14.70;;;3.93;;
4519;SDS011;2272;49.226;8.108;2023-02-01T13:21:13;25.40;;;6.07;;
4519;SDS011;2272;49.226;8.108;2023-02-01T13:23:41;13.97;;;4.17;;
4519;SDS011;2272;49.226;8.108;2023-02-01T13:26:10;18.90;;;3.97;;
4519;SDS011;2272;49.226;8.108;2023-02-01T13:28:39;13.73;;;3.03;;
4519;SDS011;2272;49.226;8.108;2023-02-01T13:31:17;11.57;;;3.73;;
4519;SDS011;2272;49.226;8.108;2023-02-01T13:33:51;21.33;;;3.10;;
4519;SDS011;2272;49.226;8.108;2023-02-01T13:36:34;24.47;;;3.87;;
4519;SDS011;2272;49.226;8.108;2023-02-01T13:39:14;12.73;;;3.20;;
4519;SDS011;2272;49.226;8.108;2023-02-01T13:41:51;13.40;;;2.90;;
4519;SDS011;2272;49.226;8.108;2023-02-01T13:44:19;18.37;;;3.37;;
4519;SDS011;2272;49.226;8.108;2023-02-01T13:46:50;31.57;;;5.90;;
4519;SDS011;2272;49.226;8.108;2023-02-01T13:49:21;18.67;;;3.37;;
4519;SDS011;2272;49.226;8.108;2023-02-01T13:51:49;10.60;;;4.00;;
4519;SDS011;2272;49.226;8.108;2023-02-01T13:54:25;19.17;;;4.97;;
4519;SDS011;2272;49.226;8.108;2023-02-01T13:56:52;10.43;;;4.20;;
4519;SDS011;2272;49.226;8.108;2023-02-01T14:04:54;17.53;;;4.33;;
4519;SDS011;2272;49.226;8.108;2023-02-01T14:07:21;16.73;;;4.90;;
4519;SDS011;2272;49.226;8.108;2023-02-01T14:09:49;19.47;;;4.40;;
4519;SDS011;2272;49.226;8.108;2023-02-01T14:15:17;21.20;;;4.13;;
4519;SDS011;2272;49.226;8.108;2023-02-01T14:17:46;13.03;;;3.83;;
4519;SDS011;2272;49.226;8.108;2023-02-01T14:23:21;10.83;;;3.50;;
4519;SDS011;2272;49.226;8.108;2023-02-01T14:26:00;21.03;;;4.60;;
4519;SDS011;2272;49.226;8.108;2023-02-01T14:28:28;10.23;;;3.13;;
4519;SDS011;2272;49.226;8.108;2023-02-01T14:30:56;22.13;;;3.20;;
4519;SDS011;2272;49.226;8.108;2023-02-01T14:33:24;23.37;;;4.03;;
4519;SDS011;2272;49.226;8.108;2023-02-01T14:35:56;8.90;;;4.00;;
4519;SDS011;2272;49.226;8.108;2023-02-01T14:38:28;13.50;;;3.10;;
4519;SDS011;2272;49.226;8.108;2023-02-01T14:41:10;18.43;;;3.20;;
4519;SDS011;2272;49.226;8.108;2023-02-01T14:43:49;12.30;;;2.57;;
4519;SDS011;2272;49.226;8.108;2023-02-01T14:46:17;12.37;;;3.33;;
4519;SDS011;2272;49.226;8.108;2023-02-01T14:48:44;13.50;;;3.50;;
4519;SDS011;2272;49.226;8.108;2023-02-01T14:51:13;13.40;;;3.00;;
4519;SDS011;2272;49.226;8.108;2023-02-01T14:53:42;7.40;;;2.93;;
4519;SDS011;2272;49.226;8.108;2023-02-01T14:56:12;22.83;;;4.00;;
4519;SDS011;2272;49.226;8.108;2023-02-01T14:58:41;12.50;;;4.90;;
4519;SDS011;2272;49.226;8.108;2023-02-01T15:01:16;17.57;;;3.50;;
4519;SDS011;2272;49.226;8.108;2023-02-01T15:03:46;21.67;;;4.73;;
4519;SDS011;2272;49.226;8.108;2023-02-01T15:06:25;17.47;;;4.57;;
4519;SDS011;2272;49.226;8.108;2023-02-01T15:08:55;9.23;;;3.40;;
4519;SDS011;2272;49.226;8.108;2023-02-01T15:11:23;20.30;;;4.20;;
4519;SDS011;2272;49.226;8.108;2023-02-01T15:13:51;12.00;;;3.37;;
4519;SDS011;2272;49.226;8.108;2023-02-01T15:16:20;18.10;;;2.90;;
4519;SDS011;2272;49.226;8.108;2023-02-01T15:18:47;6.27;;;2.70;;
4519;SDS011;2272;49.226;8.108;2023-02-01T15:21:15;14.40;;;2.83;;
4519;SDS011;2272;49.226;8.108;2023-02-01T15:23:43;15.23;;;3.33;;
4519;SDS011;2272;49.226;8.108;2023-02-01T15:26:25;17.90;;;3.63;;
4519;SDS011;2272;49.226;8.108;2023-02-01T15:28:52;13.83;;;3.90;;
4519;SDS011;2272;49.226;8.108;2023-02-01T15:31:30;7.50;;;2.73;;
4519;SDS011;2272;49.226;8.108;2023-02-01T15:33:58;14.53;;;3.30;;
4519;SDS011;2272;49.226;8.108;2023-02-01T15:36:25;14.43;;;3.73;;
4519;SDS011;2272;49.226;8.108;2023-02-01T15:41:37;10.90;;;3.10;;
4519;SDS011;2272;49.226;8.108;2023-02-01T15:44:07;18.33;;;4.53;;
4519;SDS011;2272;49.226;8.108;2023-02-01T15:46:39;22.47;;;3.70;;